You are listening to:
EHGG Approach - Groningen, Netherlands

EHGG 210555Z AUTO 28007KT 250V310 9999 FEW024 02/00 Q1031 REDZ NOSIG

If stream doesn't start automatically press the play button
If stream stops then reload player then press play